Resolute — WTW2234 — position and weather

sailwx.info

Track history (hours):
 
Tides and Currents Weather Stations Pressure Air Temp Water Temp Dewpoint Dewpoint Depression Visibility Wind Speed Wind Dir Waves Ship Positions

Resolute

Owner: Providence Steamboat Co., PROVIDENCE, RI. More information available from US FCC via Universal Licensing System and Coast Guard Vessel Documentation Center.

Last reported at 2016-Feb-13 18:33 UTC. Time now 2016-Feb-13 19:29 UTC.
Position N 40°38' W 074°10'.

Length 30 m; draft 4 m.

Type: Tug. MMSI: 367091630.

Date/timePositionNaut miles runAvg speedWind from/ knotsBaromVisibWave heightAir tempDewpointWater temp
2016-Feb-13 18:33N 40°38' W 074°10'0 0.0
2016-Feb-13 17:34N 40°38' W 074°10'0 0.0
2016-Feb-13 16:34N 40°38' W 074°10'0 0.0
2016-Feb-13 15:34N 40°38' W 074°10'0 0.0
2016-Feb-13 14:34N 40°38' W 074°10'0 0.0
2016-Feb-13 13:34N 40°38' W 074°10'0 0.0
2016-Feb-13 12:34N 40°38' W 074°10'2 1.6
2016-Feb-13 11:34N 40°39' W 074°08'5 5.3
2016-Feb-13 10:34N 40°40' W 074°01'1 1.1
2016-Feb-13 09:34N 40°39' W 074°02'6 6.1
2016-Feb-13 08:33N 40°38' W 074°10'0 0.0
2016-Feb-13 07:32N 40°38' W 074°10'0 0.0
2016-Feb-13 06:33N 40°38' W 074°10'0 0.0
2016-Feb-13 05:33N 40°38' W 074°10'0 0.0
2016-Feb-13 04:30N 40°38' W 074°10'0 0.0
2016-Feb-13 03:33N 40°38' W 074°10'0 0.2
2016-Feb-13 01:33N 40°38' W 074°09'4 3.9
2016-Feb-13 00:33N 40°40' W 074°05'3 3.1
2016-Feb-12 23:34N 40°37' W 074°03'1 1.0
2016-Feb-12 22:34N 40°38' W 074°04'2 2.3
2016-Feb-12 21:34N 40°39' W 074°07'3 2.5
2016-Feb-12 20:34N 40°38' W 074°10'0 0.0
2016-Feb-12 19:34N 40°38' W 074°10'0 0.0
2016-Feb-12 18:34N 40°38' W 074°10'0 0.0
2016-Feb-12 17:34N 40°38' W 074°10'0 0.0
2016-Feb-12 16:27N 40°38' W 074°10'0 0.0
2016-Feb-12 15:32N 40°38' W 074°10'0 0.0
2016-Feb-12 08:07N 40°39' W 074°10'0 0.0
2016-Feb-11 16:14N 40°38' W 074°10'3 3.7
2016-Feb-11 15:33N 40°39' W 074°07'2 0.7
2016-Feb-11 12:30N 40°41' W 074°08'2 1.7
2016-Feb-11 11:12N 40°39' W 074°07'2 3.0
2016-Feb-11 10:34N 40°39' W 074°05'0 0.4
2016-Feb-11 09:33N 40°39' W 074°04'3 0.3
2016-Feb-11 01:29N 40°38' W 074°08'2 0.3
2016-Feb-10 20:30N 40°39' W 074°10'0 0.1
2016-Feb-10 19:28N 40°38' W 074°10'4 2.3
2016-Feb-10 17:33N 40°40' W 074°04'5 4.7
2016-Feb-10 16:27N 40°42' W 073°58'3 2.3
2016-Feb-10 15:22N 40°45' W 073°58'6 7.1
2016-Feb-10 14:33N 40°40' W 074°02'3 2.9
2016-Feb-10 13:34N 40°39' W 074°06'0 0.0
2016-Feb-10 12:34N 40°39' W 074°06'0 0.0
2016-Feb-10 11:33N 40°39' W 074°06'0 0.0
2016-Feb-10 10:33N 40°39' W 074°06'0 0.0
2016-Feb-10 09:34N 40°39' W 074°06'2 2.0
2016-Feb-10 08:34N 40°39' W 074°08'1 0.6
2016-Feb-10 06:33N 40°38' W 074°10'0 0.0
2016-Feb-10 05:29N 40°38' W 074°10'0 0.0
2016-Feb-10 04:33N 40°38' W 074°10'0 0.0
2016-Feb-10 03:33N 40°38' W 074°10'0 0.0
2016-Feb-10 02:30N 40°38' W 074°10'0 0.0
2016-Feb-10 01:15N 40°38' W 074°10'1 1.8
2016-Feb-10 00:34N 40°39' W 074°08'1 0.5
2016-Feb-09 22:20N 40°39' W 074°10'2 0.2
2016-Feb-09 12:31N 40°38' W 074°12'2 0.5
2016-Feb-09 09:33N 40°38' W 074°10'0 0.0
2016-Feb-09 07:30N 40°38' W 074°10'0 0.0
2016-Feb-09 06:33N 40°38' W 074°10'0 0.0
2016-Feb-09 05:27N 40°38' W 074°10'0 0.0
2016-Feb-09 04:25N 40°38' W 074°10'0 0.0
2016-Feb-09 03:33N 40°38' W 074°10'0 0.0
2016-Feb-09 02:20N 40°38' W 074°10'0 0.0
2016-Feb-09 01:31N 40°38' W 074°10'0 0.0
2016-Feb-09 00:33N 40°38' W 074°10'0 0.0
2016-Feb-08 23:34N 40°38' W 074°10'0 0.0
2016-Feb-08 22:33N 40°38' W 074°10'2 2.3
2016-Feb-08 21:34N 40°40' W 074°08'3 3.1
2016-Feb-08 20:33N 40°39' W 074°04'0 0.5
2016-Feb-08 19:33N 40°40' W 074°04'1 0.5
2016-Feb-08 18:33N 40°40' W 074°05'1 1.0
2016-Feb-08 17:34N 40°39' W 074°05'2 1.8
2016-Feb-08 16:33N 40°39' W 074°07'0 0.0
2016-Feb-08 15:33N 40°39' W 074°07'3 3.5
2016-Feb-08 14:33N 40°42' W 074°09'5 4.6
2016-Feb-08 13:33N 40°38' W 074°12'0 0.3
2016-Feb-08 12:33N 40°38' W 074°12'5 5.3
2016-Feb-08 11:34N 40°39' W 074°05'1 0.9
2016-Feb-08 10:34N 40°39' W 074°04'4 4.2
2016-Feb-08 09:31N 40°38' W 074°10'0 0.0
2016-Feb-08 08:33N 40°38' W 074°10'0 0.0
2016-Feb-08 05:06N 40°38' W 074°10'0 0.0
2016-Feb-08 03:18N 40°38' W 074°10'1 1.3
2016-Feb-08 02:34N 40°39' W 074°11'1 1.0
2016-Feb-08 01:33N 40°38' W 074°10'0 0.0
2016-Feb-08 00:33N 40°38' W 074°10'4 4.2
2016-Feb-07 23:34N 40°42' W 074°07'4 4.2
2016-Feb-07 22:33N 40°38' W 074°10'0 0.0
2016-Feb-07 21:32N 40°38' W 074°10'3 2.7
2016-Feb-07 20:34N 40°39' W 074°06'2 1.9
2016-Feb-07 19:33N 40°38' W 074°04'2 2.5
2016-Feb-07 18:34N 40°36' W 074°03'9 1.3
2016-Feb-07 11:28N 40°29' W 073°55'8 8.1
2016-Feb-07 10:32N 40°34' W 074°02'7 7.1
2016-Feb-07 09:32N 40°38' W 074°10'0 0.0
2016-Feb-07 08:16N 40°38' W 074°10'0 0.0
2016-Feb-07 07:27N 40°38' W 074°10'0 0.0
2016-Feb-07 06:31N 40°38' W 074°10'0 0.0
2016-Feb-07 05:25N 40°38' W 074°10'0 0.0
2016-Feb-07 03:24N 40°38' W 074°10'0 0.0
2016-Feb-07 02:22N 40°38' W 074°10'0 0.0
2016-Feb-07 01:34N 40°38' W 074°10'0 0.0
2016-Feb-07 00:34N 40°38' W 074°10'1 1.5
2016-Feb-06 23:34N 40°40' W 074°09'2 2.0
2016-Feb-06 22:33N 40°42' W 074°08'3 3.5
2016-Feb-06 21:34N 40°38' W 074°10'0 0.0
2016-Feb-06 20:33N 40°38' W 074°10'2 0.3
2016-Feb-06 14:31N 40°38' W 074°12'2 1.9
2016-Feb-06 13:33N 40°38' W 074°10'0 0.3
2016-Feb-06 12:33N 40°38' W 074°09'4 3.6
2016-Feb-06 11:34N 40°39' W 074°05'4 4.3
2016-Feb-06 10:34N 40°42' W 074°00'0 0.0
2016-Feb-06 09:34N 40°42' W 074°00'7 6.6
2016-Feb-06 08:34N 40°39' W 074°08'1 1.3
2016-Feb-06 07:25N 40°38' W 074°10'0 0.0
2016-Feb-06 06:33N 40°38' W 074°10'0 0.0
2016-Feb-06 05:34N 40°38' W 074°10'0 0.0
2016-Feb-06 04:33N 40°38' W 074°10'0 0.0
2016-Feb-06 03:14N 40°38' W 074°10'0 0.0
2016-Feb-06 02:23N 40°38' W 074°10'0 0.0
2016-Feb-06 01:33N 40°38' W 074°10'0 0.0
2016-Feb-06 00:21N 40°38' W 074°10'0 0.0
2016-Feb-05 23:33N 40°38' W 074°10'3 3.4
2016-Feb-05 22:34N 40°39' W 074°05'0 0.0
2016-Feb-05 21:33N 40°39' W 074°05'2 1.8
2016-Feb-05 20:34N 40°39' W 074°08'1 1.3
2016-Feb-05 19:28N 40°40' W 074°09'0 0.0
2016-Feb-05 18:33N 40°40' W 074°09'2 2.3
2016-Feb-05 17:33N 40°42' W 074°09'3 3.2
2016-Feb-05 16:33N 40°39' W 074°09'5 4.9
2016-Feb-05 15:33N 40°37' W 074°03'5 5.2
2016-Feb-05 14:33N 40°38' W 074°10'0 0.1
2016-Feb-05 13:18N 40°38' W 074°10'0 0.0
2016-Feb-05 12:34N 40°38' W 074°10'0 0.0
2016-Feb-05 11:30N 40°38' W 074°10'0 0.0
2016-Feb-05 09:33N 40°38' W 074°10'0 0.0
2016-Feb-05 08:33N 40°38' W 074°10'2 1.6
2016-Feb-05 07:33N 40°39' W 074°08'3 2.7
2016-Feb-05 06:34N 40°40' W 074°05'4 4.1
2016-Feb-05 05:33N 40°38' W 074°10'0 0.0
2016-Feb-05 04:33N 40°38' W 074°10'2 0.6
2016-Feb-05 01:33N 40°38' W 074°12'3 2.7
2016-Feb-05 00:34N 40°39' W 074°09'3 2.8
2016-Feb-04 23:34N 40°41' W 074°08'0 0.3
2016-Feb-04 22:33N 40°42' W 074°08'3 1.7
2016-Feb-04 20:34N 40°38' W 074°10'5 4.7
2016-Feb-04 19:34N 40°38' W 074°04'4 4.0
2016-Feb-04 18:33N 40°38' W 074°09'1 0.7
2016-Feb-04 17:34N 40°38' W 074°10'0 0.0
2016-Feb-04 16:33N 40°38' W 074°10'0 0.0
2016-Feb-04 15:32N 40°38' W 074°10'0 0.0
2016-Feb-04 14:31N 40°38' W 074°10'0 0.0
2016-Feb-04 13:30N 40°38' W 074°10'3 3.7
2016-Feb-04 12:33N 40°42' W 074°09'3 2.9
2016-Feb-04 11:33N 40°39' W 074°09'5 4.5
2016-Feb-04 10:34N 40°38' W 074°03'7 3.3
2016-Feb-04 08:32N 40°38' W 074°12'6 6.0
2016-Feb-04 07:33N 40°39' W 074°04'1 1.1
2016-Feb-04 06:34N 40°38' W 074°04'4 4.3
2016-Feb-04 05:34N 40°41' W 074°00'7 6.8
2016-Feb-04 04:34N 40°38' W 074°09'1 1.0
2016-Feb-04 03:34N 40°38' W 074°10'4 4.0
2016-Feb-04 02:34N 40°40' W 074°05'0 0.0
2016-Feb-04 01:34N 40°40' W 074°05'3 2.7
2016-Feb-04 00:34N 40°39' W 074°02'1 1.2
2016-Feb-03 23:33N 40°39' W 074°03'3 2.9
2016-Feb-03 22:34N 40°39' W 074°07'1 0.6
2016-Feb-03 21:34N 40°39' W 074°07'0 0.5
2016-Feb-03 20:34N 40°39' W 074°06'2 2.4
2016-Feb-03 19:34N 40°39' W 074°03'2 1.7
2016-Feb-03 18:33N 40°40' W 074°04'  
Track history (hours):
 
Tides and Currents Weather Stations Pressure Air Temp Water Temp Dewpoint Dewpoint Depression Visibility Wind Speed Wind Dir Waves Ship Positions

Resolute

Owner: Providence Steamboat Co., PROVIDENCE, RI. More information available from US FCC via Universal Licensing System and Coast Guard Vessel Documentation Center.

Last reported at 2016-Feb-13 18:33 UTC. Time now 2016-Feb-13 19:29 UTC.
Position N 40°38' W 074°10'.

Length 30 m; draft 4 m.

Type: Tug. MMSI: 367091630.

Date/timePositionNaut miles runAvg speedWind from/ knotsBaromVisibWave heightAir tempDewpointWater temp
2016-Feb-13 18:33N 40°38' W 074°10'0 0.0
2016-Feb-13 17:34N 40°38' W 074°10'0 0.0
2016-Feb-13 16:34N 40°38' W 074°10'0 0.0
2016-Feb-13 15:34N 40°38' W 074°10'0 0.0
2016-Feb-13 14:34N 40°38' W 074°10'0 0.0
2016-Feb-13 13:34N 40°38' W 074°10'0 0.0
2016-Feb-13 12:34N 40°38' W 074°10'2 1.6
2016-Feb-13 11:34N 40°39' W 074°08'5 5.3
2016-Feb-13 10:34N 40°40' W 074°01'1 1.1
2016-Feb-13 09:34N 40°39' W 074°02'6 6.1
2016-Feb-13 08:33N 40°38' W 074°10'0 0.0
2016-Feb-13 07:32N 40°38' W 074°10'0 0.0
2016-Feb-13 06:33N 40°38' W 074°10'0 0.0
2016-Feb-13 05:33N 40°38' W 074°10'0 0.0
2016-Feb-13 04:30N 40°38' W 074°10'0 0.0
2016-Feb-13 03:33N 40°38' W 074°10'0 0.2
2016-Feb-13 01:33N 40°38' W 074°09'4 3.9
2016-Feb-13 00:33N 40°40' W 074°05'3 3.1
2016-Feb-12 23:34N 40°37' W 074°03'1 1.0
2016-Feb-12 22:34N 40°38' W 074°04'2 2.3
2016-Feb-12 21:34N 40°39' W 074°07'3 2.5
2016-Feb-12 20:34N 40°38' W 074°10'0 0.0
2016-Feb-12 19:34N 40°38' W 074°10'0 0.0
2016-Feb-12 18:34N 40°38' W 074°10'0 0.0
2016-Feb-12 17:34N 40°38' W 074°10'0 0.0
2016-Feb-12 16:27N 40°38' W 074°10'0 0.0
2016-Feb-12 15:32N 40°38' W 074°10'0 0.0
2016-Feb-12 08:07N 40°39' W 074°10'0 0.0
2016-Feb-11 16:14N 40°38' W 074°10'3 3.7
2016-Feb-11 15:33N 40°39' W 074°07'2 0.7
2016-Feb-11 12:30N 40°41' W 074°08'2 1.7
2016-Feb-11 11:12N 40°39' W 074°07'2 3.0
2016-Feb-11 10:34N 40°39' W 074°05'0 0.4
2016-Feb-11 09:33N 40°39' W 074°04'3 0.3
2016-Feb-11 01:29N 40°38' W 074°08'2 0.3
2016-Feb-10 20:30N 40°39' W 074°10'0 0.1
2016-Feb-10 19:28N 40°38' W 074°10'4 2.3
2016-Feb-10 17:33N 40°40' W 074°04'5 4.7
2016-Feb-10 16:27N 40°42' W 073°58'3 2.3
2016-Feb-10 15:22N 40°45' W 073°58'6 7.1
2016-Feb-10 14:33N 40°40' W 074°02'3 2.9
2016-Feb-10 13:34N 40°39' W 074°06'0 0.0
2016-Feb-10 12:34N 40°39' W 074°06'0 0.0
2016-Feb-10 11:33N 40°39' W 074°06'0 0.0
2016-Feb-10 10:33N 40°39' W 074°06'0 0.0
2016-Feb-10 09:34N 40°39' W 074°06'2 2.0
2016-Feb-10 08:34N 40°39' W 074°08'1 0.6
2016-Feb-10 06:33N 40°38' W 074°10'0 0.0
2016-Feb-10 05:29N 40°38' W 074°10'0 0.0
2016-Feb-10 04:33N 40°38' W 074°10'0 0.0
2016-Feb-10 03:33N 40°38' W 074°10'0 0.0
2016-Feb-10 02:30N 40°38' W 074°10'0 0.0
2016-Feb-10 01:15N 40°38' W 074°10'1 1.8
2016-Feb-10 00:34N 40°39' W 074°08'1 0.5
2016-Feb-09 22:20N 40°39' W 074°10'2 0.2
2016-Feb-09 12:31N 40°38' W 074°12'2 0.5
2016-Feb-09 09:33N 40°38' W 074°10'0 0.0
2016-Feb-09 07:30N 40°38' W 074°10'0 0.0
2016-Feb-09 06:33N 40°38' W 074°10'0 0.0
2016-Feb-09 05:27N 40°38' W 074°10'0 0.0
2016-Feb-09 04:25N 40°38' W 074°10'0 0.0
2016-Feb-09 03:33N 40°38' W 074°10'0 0.0
2016-Feb-09 02:20N 40°38' W 074°10'0 0.0
2016-Feb-09 01:31N 40°38' W 074°10'0 0.0
2016-Feb-09 00:33N 40°38' W 074°10'0 0.0
2016-Feb-08 23:34N 40°38' W 074°10'0 0.0
2016-Feb-08 22:33N 40°38' W 074°10'2 2.3
2016-Feb-08 21:34N 40°40' W 074°08'3 3.1
2016-Feb-08 20:33N 40°39' W 074°04'0 0.5
2016-Feb-08 19:33N 40°40' W 074°04'1 0.5
2016-Feb-08 18:33N 40°40' W 074°05'1 1.0
2016-Feb-08 17:34N 40°39' W 074°05'2 1.8
2016-Feb-08 16:33N 40°39' W 074°07'0 0.0
2016-Feb-08 15:33N 40°39' W 074°07'3 3.5
2016-Feb-08 14:33N 40°42' W 074°09'5 4.6
2016-Feb-08 13:33N 40°38' W 074°12'0 0.3
2016-Feb-08 12:33N 40°38' W 074°12'5 5.3
2016-Feb-08 11:34N 40°39' W 074°05'1 0.9
2016-Feb-08 10:34N 40°39' W 074°04'4 4.2
2016-Feb-08 09:31N 40°38' W 074°10'0 0.0
2016-Feb-08 08:33N 40°38' W 074°10'0 0.0
2016-Feb-08 05:06N 40°38' W 074°10'0 0.0
2016-Feb-08 03:18N 40°38' W 074°10'1 1.3
2016-Feb-08 02:34N 40°39' W 074°11'1 1.0
2016-Feb-08 01:33N 40°38' W 074°10'0 0.0
2016-Feb-08 00:33N 40°38' W 074°10'4 4.2
2016-Feb-07 23:34N 40°42' W 074°07'4 4.2
2016-Feb-07 22:33N 40°38' W 074°10'0 0.0
2016-Feb-07 21:32N 40°38' W 074°10'3 2.7
2016-Feb-07 20:34N 40°39' W 074°06'2 1.9
2016-Feb-07 19:33N 40°38' W 074°04'2 2.5
2016-Feb-07 18:34N 40°36' W 074°03'9 1.3
2016-Feb-07 11:28N 40°29' W 073°55'8 8.1
2016-Feb-07 10:32N 40°34' W 074°02'7 7.1
2016-Feb-07 09:32N 40°38' W 074°10'0 0.0
2016-Feb-07 08:16N 40°38' W 074°10'0 0.0
2016-Feb-07 07:27N 40°38' W 074°10'0 0.0
2016-Feb-07 06:31N 40°38' W 074°10'0 0.0
2016-Feb-07 05:25N 40°38' W 074°10'0 0.0
2016-Feb-07 03:24N 40°38' W 074°10'0 0.0
2016-Feb-07 02:22N 40°38' W 074°10'0 0.0
2016-Feb-07 01:34N 40°38' W 074°10'0 0.0
2016-Feb-07 00:34N 40°38' W 074°10'1 1.5
2016-Feb-06 23:34N 40°40' W 074°09'2 2.0
2016-Feb-06 22:33N 40°42' W 074°08'3 3.5
2016-Feb-06 21:34N 40°38' W 074°10'0 0.0
2016-Feb-06 20:33N 40°38' W 074°10'2 0.3
2016-Feb-06 14:31N 40°38' W 074°12'2 1.9
2016-Feb-06 13:33N 40°38' W 074°10'0 0.3
2016-Feb-06 12:33N 40°38' W 074°09'4 3.6
2016-Feb-06 11:34N 40°39' W 074°05'4 4.3
2016-Feb-06 10:34N 40°42' W 074°00'0 0.0
2016-Feb-06 09:34N 40°42' W 074°00'7 6.6
2016-Feb-06 08:34N 40°39' W 074°08'1 1.3
2016-Feb-06 07:25N 40°38' W 074°10'0 0.0
2016-Feb-06 06:33N 40°38' W 074°10'0 0.0
2016-Feb-06 05:34N 40°38' W 074°10'0 0.0
2016-Feb-06 04:33N 40°38' W 074°10'0 0.0
2016-Feb-06 03:14N 40°38' W 074°10'0 0.0
2016-Feb-06 02:23N 40°38' W 074°10'0 0.0
2016-Feb-06 01:33N 40°38' W 074°10'0 0.0
2016-Feb-06 00:21N 40°38' W 074°10'0 0.0
2016-Feb-05 23:33N 40°38' W 074°10'3 3.4
2016-Feb-05 22:34N 40°39' W 074°05'0 0.0
2016-Feb-05 21:33N 40°39' W 074°05'2 1.8
2016-Feb-05 20:34N 40°39' W 074°08'1 1.3
2016-Feb-05 19:28N 40°40' W 074°09'0 0.0
2016-Feb-05 18:33N 40°40' W 074°09'2 2.3
2016-Feb-05 17:33N 40°42' W 074°09'3 3.2
2016-Feb-05 16:33N 40°39' W 074°09'5 4.9
2016-Feb-05 15:33N 40°37' W 074°03'5 5.2
2016-Feb-05 14:33N 40°38' W 074°10'0 0.1
2016-Feb-05 13:18N 40°38' W 074°10'0 0.0
2016-Feb-05 12:34N 40°38' W 074°10'0 0.0
2016-Feb-05 11:30N 40°38' W 074°10'0 0.0
2016-Feb-05 09:33N 40°38' W 074°10'0 0.0
2016-Feb-05 08:33N 40°38' W 074°10'2 1.6
2016-Feb-05 07:33N 40°39' W 074°08'3 2.7
2016-Feb-05 06:34N 40°40' W 074°05'4 4.1
2016-Feb-05 05:33N 40°38' W 074°10'0 0.0
2016-Feb-05 04:33N 40°38' W 074°10'2 0.6
2016-Feb-05 01:33N 40°38' W 074°12'3 2.7
2016-Feb-05 00:34N 40°39' W 074°09'3 2.8
2016-Feb-04 23:34N 40°41' W 074°08'0 0.3
2016-Feb-04 22:33N 40°42' W 074°08'3 1.7
2016-Feb-04 20:34N 40°38' W 074°10'5 4.7
2016-Feb-04 19:34N 40°38' W 074°04'4 4.0
2016-Feb-04 18:33N 40°38' W 074°09'1 0.7
2016-Feb-04 17:34N 40°38' W 074°10'0 0.0
2016-Feb-04 16:33N 40°38' W 074°10'0 0.0
2016-Feb-04 15:32N 40°38' W 074°10'0 0.0
2016-Feb-04 14:31N 40°38' W 074°10'0 0.0
2016-Feb-04 13:30N 40°38' W 074°10'3 3.7
2016-Feb-04 12:33N 40°42' W 074°09'3 2.9
2016-Feb-04 11:33N 40°39' W 074°09'5 4.5
2016-Feb-04 10:34N 40°38' W 074°03'7 3.3
2016-Feb-04 08:32N 40°38' W 074°12'6 6.0
2016-Feb-04 07:33N 40°39' W 074°04'1 1.1
2016-Feb-04 06:34N 40°38' W 074°04'4 4.3
2016-Feb-04 05:34N 40°41' W 074°00'7 6.8
2016-Feb-04 04:34N 40°38' W 074°09'1 1.0
2016-Feb-04 03:34N 40°38' W 074°10'4 4.0
2016-Feb-04 02:34N 40°40' W 074°05'0 0.0
2016-Feb-04 01:34N 40°40' W 074°05'3 2.7
2016-Feb-04 00:34N 40°39' W 074°02'1 1.2
2016-Feb-03 23:33N 40°39' W 074°03'3 2.9
2016-Feb-03 22:34N 40°39' W 074°07'1 0.6
2016-Feb-03 21:34N 40°39' W 074°07'0 0.5
2016-Feb-03 20:34N 40°39' W 074°06'2 2.4
2016-Feb-03 19:34N 40°39' W 074°03'2 1.7
2016-Feb-03 18:33N 40°40' W 074°04'  

Dump ship's entire track history